Ana Sayfa
METAR-TAF:

METAR-TAF

Havaalanları :

York Airport

York, Pensilvanya, Amerika Birleşik Devletleri

Enlem: 39-55-10N, Boylam: 076-52-37W, yükseklik: 146 m

Güncel hava durumu gözlemi

Rapor saat 18:01 UTC de 25 dakika önce yapıldı.
Rüzgar kuzeybatıdan 8 kt
Sıcaklık 11°C
Nem 87%
Basınç 1011 hPa
Görüş mesafesi: 4.8 km
700 ft yükseklikte parçalı çok bulutlu
1200 ft yükseklikte parçalı çok bulutlu
4800 ft yükseklikte çok bulutlu
hafif yağmur, Pus

METAR: KTHV 101801Z AUTO 32008KT 3SM -RA BR BKN007 BKN012 OVC048 11/09 A2984 RMK AO2 CIG 004V011 P0001 T01110094

Saat: 13:26 (18:26 UTC)


TAF: eksik

4.000'den fazla havaalanı için hava durumu gözlemleri ve tahminleri (METAR ve TAF raporları).

Kullanılabilir istasyonlar harita üzerinde sarı ve kırmızı noktalarla gösterilir.

İstasyonun adını görmek için fareyi noktanın üzerinde gezdirin.

Sonrasında hava gözlem ve tahminlerini görmek için tıklayın.

Haritayı değiştirmek için: yaklaştırmak için siyah artı işaretli yeşil düğmeye ve uzaklaştırmak için de eksi işaretli düğmeye hızla tıklayın; bitişik haritalar için yeşil okları kullanın.


METAR-TAF: